Time;durP1;ratioP1;P1;durP2;ratioP2;P2;SDS_P1;SDS_P2;PMS_P1;PMS_P2;Temp;Humidity;BMP_temperature;BMP_pressure;BME280_temperature;BME280_humidity;BME280_pressure;Samples;Min_cycle;Max_cycle;Signal;HPM_P1;HPM_P2
2022/01/09 00:01:33;;;;;;;0.95;0.77;;;17.50;53.50;;;;;;5105576;28;20059;-57
2022/01/09 00:03:59;;;;;;;1.50;0.82;;;17.40;53.40;;;;;;5088261;28;20062;-54
2022/01/09 00:06:26;;;;;;;1.40;0.95;;;17.40;53.50;;;;;;5085440;28;20035;-57
2022/01/09 00:08:52;;;;;;;1.65;0.80;;;17.40;53.60;;;;;;5091022;28;20055;-57
2022/01/09 00:11:25;;;;;;;1.33;0.73;;;17.40;53.80;;;;;;5105308;28;20024;-57
2022/01/09 00:13:52;;;;;;;0.88;0.80;;;17.50;54.00;;;;;;5105346;28;20116;-56
2022/01/09 00:16:20;;;;;;;1.05;0.70;;;17.50;53.90;;;;;;5105368;28;20024;-57
2022/01/09 00:18:47;;;;;;;1.10;0.70;;;17.50;53.70;;;;;;5105450;28;20055;-53
2022/01/09 00:21:13;;;;;;;1.15;0.90;;;17.50;53.50;;;;;;5105122;28;20024;-57
2022/01/09 00:23:39;;;;;;;2.30;0.80;;;17.40;53.50;;;;;;5105030;28;20044;-57
2022/01/09 00:26:06;;;;;;;1.25;0.77;;;17.40;53.40;;;;;;5105204;28;20024;-58
2022/01/09 00:28:32;;;;;;;1.10;0.90;;;17.40;53.50;;;;;;5098766;28;20598;-56
2022/01/09 00:30:59;;;;;;;1.70;0.90;;;17.30;53.60;;;;;;5084560;28;20037;-57
2022/01/09 00:33:25;;;;;;;1.08;0.90;;;17.40;53.90;;;;;;5084909;28;20031;-57
2022/01/09 00:35:51;;;;;;;1.27;0.80;;;17.40;53.90;;;;;;5084833;28;20048;-57
2022/01/09 00:38:17;;;;;;;1.35;0.90;;;17.50;53.90;;;;;;5083226;28;20021;-57
2022/01/09 00:40:43;;;;;;;1.80;1.00;;;17.50;53.70;;;;;;5097508;28;20050;-57
2022/01/09 00:43:10;;;;;;;1.10;0.90;;;17.50;53.60;;;;;;5105015;28;20043;-58
2022/01/09 00:45:37;;;;;;;0.93;0.70;;;17.40;53.50;;;;;;5104551;28;20020;-58
2022/01/09 00:48:03;;;;;;;0.90;0.80;;;17.40;53.40;;;;;;5104527;28;20031;-55
2022/01/09 00:50:29;;;;;;;2.25;1.00;;;17.40;53.60;;;;;;5104641;28;20030;-56
2022/01/09 00:52:56;;;;;;;0.93;0.80;;;17.40;53.90;;;;;;5104472;28;20039;-57
2022/01/09 00:55:22;;;;;;;1.15;0.98;;;17.40;53.90;;;;;;5104581;28;20024;-56
2022/01/09 00:57:48;;;;;;;1.33;1.00;;;17.50;53.90;;;;;;5103924;28;20035;-57
2022/01/09 01:00:14;;;;;;;1.30;0.85;;;17.50;53.80;;;;;;5083907;28;20027;-57
2022/01/09 01:02:40;;;;;;;1.25;0.88;;;17.40;53.50;;;;;;5084275;28;20043;-56
2022/01/09 01:05:07;;;;;;;2.00;1.00;;;17.40;53.60;;;;;;5084074;28;20054;-57
2022/01/09 01:07:33;;;;;;;1.10;0.90;;;17.40;53.50;;;;;;5099031;28;20028;-55
2022/01/09 01:09:59;;;;;;;1.50;1.10;;;17.30;53.50;;;;;;5103879;28;20283;-58
2022/01/09 01:12:26;;;;;;;1.63;1.10;;;17.30;53.80;;;;;;5104076;28;20028;-57
2022/01/09 01:14:53;;;;;;;1.20;0.95;;;17.40;53.90;;;;;;5104197;28;20020;-57
2022/01/09 01:17:20;;;;;;;0.82;0.73;;;17.40;54.00;;;;;;5104231;28;20031;-57
2022/01/09 01:19:46;;;;;;;1.70;1.30;;;17.50;54.00;;;;;;5104298;28;20026;-56
2022/01/09 01:22:13;;;;;;;1.42;1.00;;;17.50;53.70;;;;;;5103963;28;20044;-57
2022/01/09 01:24:39;;;;;;;1.80;1.02;;;17.40;53.60;;;;;;5103922;28;20027;-57
2022/01/09 01:27:05;;;;;;;1.70;1.13;;;17.40;53.60;;;;;;5103844;28;20174;-57
2022/01/09 01:29:32;;;;;;;1.42;1.00;;;17.30;53.60;;;;;;5103734;28;20073;-57
2022/01/09 01:31:58;;;;;;;1.17;0.85;;;17.30;53.80;;;;;;5103775;28;20040;-57
2022/01/09 01:34:24;;;;;;;1.52;0.98;;;17.40;54.00;;;;;;5104038;28;20039;-56
2022/01/09 01:36:50;;;;;;;1.85;1.23;;;17.40;53.90;;;;;;5103494;28;20092;-58
2022/01/09 01:39:16;;;;;;;1.38;1.00;;;17.50;54.10;;;;;;5103487;28;20016;-57
2022/01/09 01:41:43;;;;;;;1.52;1.00;;;17.40;53.70;;;;;;5103371;28;20119;-57
2022/01/09 01:44:10;;;;;;;2.17;1.20;;;17.40;53.60;;;;;;5103629;28;20040;-55
2022/01/09 01:46:37;;;;;;;1.52;1.10;;;17.40;53.70;;;;;;5103425;28;20373;-58
2022/01/09 01:49:03;;;;;;;1.10;0.90;;;17.30;53.70;;;;;;5103380;28;20047;-57
2022/01/09 01:51:29;;;;;;;1.48;1.05;;;17.30;53.80;;;;;;5103328;28;20024;-57
2022/01/09 01:53:56;;;;;;;1.15;0.90;;;17.30;54.00;;;;;;5103062;28;20136;-57
2022/01/09 01:56:23;;;;;;;1.58;1.00;;;17.40;54.00;;;;;;5103442;28;20028;-57
2022/01/09 01:58:49;;;;;;;1.13;0.90;;;17.50;54.10;;;;;;5093651;28;20042;-57
2022/01/09 02:01:15;;;;;;;1.23;0.82;;;17.50;54.00;;;;;;5082807;28;20039;-57
2022/01/09 02:03:42;;;;;;;1.77;0.98;;;17.40;53.70;;;;;;5095162;28;20051;-57
2022/01/09 02:06:08;;;;;;;1.38;1.20;;;17.40;53.70;;;;;;5103124;28;20030;-56
2022/01/09 02:08:34;;;;;;;1.50;1.10;;;17.30;53.70;;;;;;5101567;28;20066;-58
2022/01/09 02:11:00;;;;;;;1.10;0.90;;;17.30;53.70;;;;;;5087221;28;20028;-57
2022/01/09 02:13:26;;;;;;;1.48;1.08;;;17.30;54.00;;;;;;5082822;28;20098;-58
2022/01/09 02:15:57;;;;;;;1.55;1.13;;;17.40;54.10;;;;;;5082770;28;20028;-57
2022/01/09 02:18:23;;;;;;;1.40;0.80;;;17.40;54.10;;;;;;5082726;28;20024;-57
2022/01/09 02:20:50;;;;;;;1.65;1.15;;;17.50;54.10;;;;;;5082936;28;20055;-56
2022/01/09 02:23:17;;;;;;;1.60;1.10;;;17.50;53.80;;;;;;5091917;28;20035;-56
2022/01/09 02:25:43;;;;;;;1.20;0.95;;;17.40;53.70;;;;;;5102761;28;20481;-57
2022/01/09 02:28:10;;;;;;;1.13;1.00;;;17.40;53.70;;;;;;5131992;27;20557;-56
2022/01/09 02:30:37;;;;;;;1.50;1.00;;;17.30;53.70;;;;;;5082632;28;20082;-57
2022/01/09 02:33:05;;;;;;;1.50;1.00;;;17.30;54.00;;;;;;5082361;28;20024;-57
2022/01/09 02:35:32;;;;;;;1.58;1.10;;;17.40;54.00;;;;;;5082427;28;20076;-55
2022/01/09 02:37:59;;;;;;;1.42;1.00;;;17.40;54.00;;;;;;5090767;28;20065;-57
2022/01/09 02:40:25;;;;;;;1.25;0.90;;;17.40;54.00;;;;;;5102811;28;20113;-58
2022/01/09 02:42:52;;;;;;;1.65;0.90;;;17.40;53.70;;;;;;5102172;28;20061;-57
2022/01/09 02:45:21;;;;;;;1.13;0.85;;;17.40;53.70;;;;;;5102894;28;20051;-57
2022/01/09 02:47:48;;;;;;;2.00;1.00;;;17.30;53.70;;;;;;5102603;28;20028;-56
2022/01/09 02:53:01;;;;;;;1.20;1.00;;;17.30;54.00;;;;;;5102367;28;20708;-57
2022/01/09 02:55:27;;;;;;;;;;;17.40;54.00;;;;;;5102933;28;20033;-56
2022/01/09 02:57:58;;;;;;;0.93;0.77;;;17.40;54.00;;;;;;5101180;28;19934;-56
2022/01/09 03:00:31;;;;;;;1.08;0.95;;;17.40;54.00;;;;;;5082275;28;20020;-54
2022/01/09 03:02:57;;;;;;;2.75;1.10;;;17.40;53.80;;;;;;5082271;28;20067;-57
2022/01/09 03:05:24;;;;;;;1.30;0.90;;;17.40;53.70;;;;;;5082160;28;20055;-58
2022/01/09 03:07:50;;;;;;;1.50;1.00;;;17.30;53.70;;;;;;5082265;28;20058;-56
2022/01/09 03:10:17;;;;;;;1.15;0.77;;;17.30;53.80;;;;;;5091798;28;20123;-57
2022/01/09 03:12:43;;;;;;;;;;;17.30;54.10;;;;;;5106895;28;20135;-58
2022/01/09 03:15:10;;;;;;;1.25;1.10;;;17.40;54.00;;;;;;5106836;28;19934;-56
2022/01/09 03:17:36;;;;;;;1.25;0.93;;;17.40;54.10;;;;;;5106540;28;20039;-56
2022/01/09 03:20:04;;;;;;;1.02;0.93;;;17.40;54.10;;;;;;5106519;28;20028;-57
2022/01/09 03:22:30;;;;;;;1.15;0.95;;;17.40;53.70;;;;;;5104703;28;20083;-56
2022/01/09 03:24:56;;;;;;;1.25;0.93;;;17.40;53.70;;;;;;5106052;28;20028;-57
2022/01/09 03:27:22;;;;;;;1.42;0.90;;;17.30;53.80;;;;;;5106016;28;20043;-56
2022/01/09 03:29:48;;;;;;;1.35;1.00;;;17.30;53.80;;;;;;5088917;28;20163;-57
2022/01/09 03:32:14;;;;;;;1.48;1.00;;;17.30;54.00;;;;;;5085784;28;20078;-57
2022/01/09 03:34:40;;;;;;;1.38;1.00;;;17.40;54.00;;;;;;5098821;28;20084;-57
2022/01/09 03:37:07;;;;;;;1.73;0.93;;;17.40;53.90;;;;;;5106155;28;20431;-56
2022/01/09 03:39:33;;;;;;;1.00;0.90;;;17.40;53.90;;;;;;5105847;28;20028;-56
2022/01/09 03:41:59;;;;;;;1.45;0.80;;;17.40;53.60;;;;;;5105968;28;20036;-57
2022/01/09 03:44:26;;;;;;;1.23;0.70;;;17.40;53.70;;;;;;5105931;28;20036;-56
2022/01/09 03:46:53;;;;;;;1.60;1.13;;;17.30;53.60;;;;;;5105287;28;20031;-57
2022/01/09 03:49:19;;;;;;;1.20;0.80;;;17.30;53.70;;;;;;5105870;28;20121;-57
2022/01/09 03:51:49;;;;;;;1.02;0.93;;;17.30;54.00;;;;;;5105805;28;20279;-56
2022/01/09 03:54:16;;;;;;;1.05;0.70;;;17.40;53.90;;;;;;5105480;28;20290;-55
2022/01/09 03:56:42;;;;;;;1.35;0.98;;;17.40;53.90;;;;;;5105782;28;20095;-56
2022/01/09 03:59:08;;;;;;;1.17;0.80;;;17.40;53.90;;;;;;5093862;28;20056;-57
2022/01/09 04:01:34;;;;;;;0.95;0.80;;;17.40;53.70;;;;;;5085426;28;20092;-57
2022/01/09 04:04:00;;;;;;;1.63;0.88;;;17.40;53.60;;;;;;5088128;28;20066;-57
2022/01/09 04:06:26;;;;;;;0.90;0.80;;;17.40;53.50;;;;;;5105727;28;20024;-56
2022/01/09 04:08:53;;;;;;;0.90;0.80;;;17.30;53.60;;;;;;5105311;28;20048;-57
2022/01/09 04:11:23;;;;;;;1.67;1.02;;;17.30;53.90;;;;;;5105212;28;20028;-57
2022/01/09 04:13:50;;;;;;;1.65;0.98;;;17.40;53.90;;;;;;5103401;28;20046;-56
2022/01/09 04:16:16;;;;;;;1.50;1.08;;;17.40;53.90;;;;;;5105217;28;20038;-57
2022/01/09 04:18:42;;;;;;;1.13;0.80;;;17.40;54.00;;;;;;5105248;28;20032;-56
2022/01/09 04:21:08;;;;;;;1.98;0.95;;;17.50;53.80;;;;;;5104422;28;20027;-58
2022/01/09 04:23:34;;;;;;;1.20;1.10;;;17.40;53.70;;;;;;5104810;28;20126;-57
2022/01/09 04:26:00;;;;;;;1.35;1.00;;;17.30;53.70;;;;;;5105167;28;20035;-57
2022/01/09 04:28:26;;;;;;;1.70;0.90;;;17.30;53.70;;;;;;5119872;28;20043;-57
2022/01/09 04:30:52;;;;;;;1.55;1.13;;;17.30;54.00;;;;;;5104711;28;20475;-57
2022/01/09 04:33:18;;;;;;;1.17;1.00;;;17.40;54.00;;;;;;5104666;28;20087;-57
2022/01/09 04:35:45;;;;;;;1.40;1.00;;;17.40;54.00;;;;;;5104869;28;20119;-55
2022/01/09 04:38:11;;;;;;;1.58;1.10;;;17.40;54.00;;;;;;5104823;28;20058;-57
2022/01/09 04:40:37;;;;;;;1.58;1.10;;;17.40;53.70;;;;;;5104781;28;20031;-56
2022/01/09 04:43:06;;;;;;;1.20;1.00;;;17.40;53.70;;;;;;5104388;28;20040;-56
2022/01/09 04:45:32;;;;;;;1.75;1.20;;;17.40;53.70;;;;;;5104942;28;20056;-57
2022/01/09 04:48:05;;;;;;;3.22;1.30;;;17.30;53.80;;;;;;5104716;28;20111;-58
2022/01/09 04:50:33;;;;;;;1.40;1.20;;;17.40;54.10;;;;;;5104659;28;20032;-57
2022/01/09 04:53:04;;;;;;;1.80;1.20;;;17.40;54.00;;;;;;5104590;28;20036;-55
2022/01/09 04:55:32;;;;;;;1.92;1.20;;;17.50;54.10;;;;;;5104660;28;20022;-56
2022/01/09 04:57:58;;;;;;;2.10;1.40;;;17.50;53.90;;;;;;5102888;28;20028;-57
2022/01/09 05:00:25;;;;;;;1.90;1.30;;;17.40;53.80;;;;;;5083984;28;20032;-56
2022/01/09 05:02:51;;;;;;;1.92;1.33;;;17.40;53.70;;;;;;5084109;28;20051;-58
2022/01/09 05:05:17;;;;;;;1.27;1.17;;;17.30;53.80;;;;;;5097718;28;20047;-57
2022/01/09 05:07:44;;;;;;;1.98;1.20;;;17.30;54.00;;;;;;5104434;28;20035;-55
2022/01/09 05:10:11;;;;;;;1.70;1.15;;;17.40;54.10;;;;;;5104266;28;20063;-57
2022/01/09 05:12:37;;;;;;;1.98;1.38;;;17.50;54.10;;;;;;5104270;28;20028;-57
2022/01/09 05:15:04;;;;;;;1.95;1.48;;;17.50;54.10;;;;;;5104036;28;20035;-57
2022/01/09 05:17:30;;;;;;;;;;;17.50;54.10;;;;;;5104587;28;20043;-56
2022/01/09 05:19:59;;;;;;;1.52;1.27;;;17.40;53.90;;;;;;5104040;28;19934;-56
2022/01/09 05:22:26;;;;;;;2.25;1.42;;;17.40;53.80;;;;;;5103844;28;20058;-57
2022/01/09 05:24:54;;;;;;;1.65;1.20;;;17.30;53.90;;;;;;5103026;28;20028;-57
2022/01/09 05:27:21;;;;;;;1.70;1.35;;;17.30;54.10;;;;;;5103980;28;20560;-57
2022/01/09 05:29:47;;;;;;;2.28;1.40;;;17.40;54.10;;;;;;5087045;28;20028;-56
2022/01/09 05:32:13;;;;;;;2.60;1.40;;;17.40;54.10;;;;;;5083133;28;20041;-57
2022/01/09 05:34:39;;;;;;;1.75;1.25;;;17.50;54.20;;;;;;5101134;28;20069;-57
2022/01/09 05:37:06;;;;;;;1.75;1.20;;;17.50;54.20;;;;;;5103859;28;20028;-57
2022/01/09 05:39:35;;;;;;;1.45;1.10;;;17.50;53.90;;;;;;5103526;28;20106;-57
2022/01/09 05:42:03;;;;;;;1.70;1.23;;;17.40;53.90;;;;;;5103655;28;20031;-56
2022/01/09 05:44:31;;;;;;;2.90;1.70;;;17.40;53.90;;;;;;5103285;28;20122;-55
2022/01/09 05:46:59;;;;;;;2.42;1.80;;;17.40;54.00;;;;;;5103587;28;20076;-57
2022/01/09 05:49:25;;;;;;;1.42;1.20;;;17.40;54.20;;;;;;5103731;28;20101;-56
2022/01/09 05:51:51;;;;;;;3.40;1.25;;;17.40;54.20;;;;;;5103458;28;20051;-56
2022/01/09 05:54:17;;;;;;;1.67;1.30;;;17.50;54.30;;;;;;5103280;28;20429;-58
2022/01/09 05:56:43;;;;;;;2.55;1.58;;;17.50;54.30;;;;;;5103054;28;20024;-56
2022/01/09 05:59:09;;;;;;;3.17;1.58;;;17.50;54.10;;;;;;5091712;28;20119;-56
2022/01/09 06:01:35;;;;;;;2.35;1.50;;;17.40;54.00;;;;;;5083426;28;20127;-56
2022/01/09 06:04:02;;;;;;;1.75;1.48;;;17.40;54.00;;;;;;5102730;28;20424;-57
2022/01/09 06:06:28;;;;;;;2.55;1.60;;;17.30;54.00;;;;;;5103178;28;20043;-56
2022/01/09 06:08:54;;;;;;;1.70;1.30;;;17.40;54.30;;;;;;5102889;28;20058;-56
2022/01/09 06:11:20;;;;;;;1.40;1.10;;;17.40;54.20;;;;;;5103154;28;20896;-57
2022/01/09 06:13:46;;;;;;;2.45;1.52;;;17.50;54.30;;;;;;5103180;28;20103;-55
2022/01/09 06:16:13;;;;;;;2.70;1.45;;;17.50;54.40;;;;;;5102842;28;20047;-56
2022/01/09 06:18:39;;;;;;;2.08;1.70;;;17.50;54.20;;;;;;5103214;28;20028;-57
2022/01/09 06:21:05;;;;;;;2.25;1.50;;;17.50;54.70;;;;;;5103176;28;20143;-55
2022/01/09 06:23:31;;;;;;;2.30;1.50;;;17.40;54.10;;;;;;5102606;28;20122;-57
2022/01/09 06:25:57;;;;;;;2.53;1.60;;;17.40;54.10;;;;;;5103024;28;20028;-57
2022/01/09 06:28:23;;;;;;;2.60;1.25;;;17.40;54.20;;;;;;5097361;28;20028;-57
2022/01/09 06:30:49;;;;;;;2.00;1.40;;;17.40;54.40;;;;;;5082561;28;20113;-57
2022/01/09 06:33:16;;;;;;;2.53;1.60;;;17.50;54.40;;;;;;5082569;28;20028;-57
2022/01/09 06:35:42;;;;;;;1.92;1.42;;;17.50;54.40;;;;;;5082467;28;20032;-57
2022/01/09 06:38:08;;;;;;;2.30;1.50;;;17.50;54.30;;;;;;5082678;28;20118;-55
2022/01/09 06:40:34;;;;;;;2.08;1.33;;;17.50;54.20;;;;;;5094356;28;20034;-57
2022/01/09 06:43:00;;;;;;;3.28;1.60;;;17.40;54.10;;;;;;5102620;28;20036;-55
2022/01/09 06:45:27;;;;;;;2.03;1.50;;;17.40;54.20;;;;;;5102355;28;20463;-56
2022/01/09 06:47:54;;;;;;;1.80;1.58;;;17.40;54.30;;;;;;5102951;28;20024;-56
2022/01/09 06:50:21;;;;;;;1.63;1.30;;;17.40;54.40;;;;;;5102815;28;20020;-55
2022/01/09 06:52:47;;;;;;;2.22;1.60;;;17.50;55.00;;;;;;5102722;28;20057;-57
2022/01/09 06:55:13;;;;;;;1.60;1.30;;;17.50;54.50;;;;;;5102451;28;20012;-57
2022/01/09 06:57:39;;;;;;;2.70;1.50;;;17.50;54.40;;;;;;5102602;28;20111;-57
2022/01/09 07:00:07;;;;;;;1.67;1.40;;;17.50;54.30;;;;;;5082957;28;20036;-56
2022/01/09 07:02:33;;;;;;;2.40;1.60;;;17.40;54.20;;;;;;5082385;28;20123;-56
2022/01/09 07:04:59;;;;;;;1.98;1.20;;;17.40;54.30;;;;;;5082004;28;20032;-58
2022/01/09 07:07:25;;;;;;;3.72;1.63;;;17.40;54.40;;;;;;5082277;28;20032;-56
2022/01/09 07:09:51;;;;;;;2.75;1.60;;;17.50;54.50;;;;;;5087904;28;20077;-57
2022/01/09 07:12:19;;;;;;;2.25;1.42;;;17.50;54.50;;;;;;5101018;28;20095;-57
2022/01/09 07:14:46;;;;;;;2.67;1.60;;;17.50;54.50;;;;;;5102067;28;20043;-57
2022/01/09 07:17:12;;;;;;;2.72;1.70;;;17.50;54.40;;;;;;5102286;28;20563;-57
2022/01/09 07:19:38;;;;;;;2.15;1.45;;;17.50;54.30;;;;;;5102641;28;20728;-57
2022/01/09 07:22:05;;;;;;;2.97;1.70;;;17.40;54.20;;;;;;5102278;28;20094;-57
2022/01/09 07:24:31;;;;;;;2.00;1.40;;;17.40;54.30;;;;;;5082167;28;20047;-57
2022/01/09 07:26:57;;;;;;;2.60;1.73;;;17.40;54.60;;;;;;5082040;28;20397;-56
2022/01/09 07:29:24;;;;;;;1.88;1.13;;;17.50;54.60;;;;;;5082513;28;20093;-56
2022/01/09 07:31:51;;;;;;;2.33;1.65;;;17.50;54.60;;;;;;5098322;28;20024;-55
2022/01/09 07:34:20;;;;;;;2.42;1.60;;;17.50;55.30;;;;;;5102025;28;20795;-56
2022/01/09 07:36:47;;;;;;;2.28;1.40;;;17.50;54.50;;;;;;5101914;28;20032;-56
2022/01/09 07:39:13;;;;;;;2.88;1.40;;;17.50;54.50;;;;;;5101957;28;20123;-56
2022/01/09 07:41:40;;;;;;;2.67;1.27;;;17.40;54.50;;;;;;5102106;28;20056;-57
2022/01/09 07:44:06;;;;;;;2.25;1.55;;;17.40;54.50;;;;;;5102125;28;20040;-58
2022/01/09 07:46:32;;;;;;;2.88;1.55;;;17.40;54.70;;;;;;5101909;28;20028;-57
2022/01/09 07:48:58;;;;;;;2.00;1.38;;;17.40;54.70;;;;;;5102144;28;20032;-56
2022/01/09 07:51:24;;;;;;;2.38;1.50;;;17.50;54.60;;;;;;5102010;28;20046;-57
2022/01/09 07:53:50;;;;;;;1.90;1.58;;;17.50;54.60;;;;;;5102032;28;20094;-56
2022/01/09 07:56:17;;;;;;;2.40;1.35;;;17.50;54.60;;;;;;5101902;28;20016;-57
2022/01/09 07:58:43;;;;;;;2.28;1.40;;;17.50;54.50;;;;;;5097886;28;20142;-57
2022/01/09 08:01:09;;;;;;;2.13;1.52;;;17.50;54.50;;;;;;5085627;28;20028;-55
2022/01/09 08:03:35;;;;;;;2.05;1.50;;;17.40;54.50;;;;;;5085563;28;20131;-57
2022/01/09 08:06:02;;;;;;;1.40;1.30;;;17.40;54.60;;;;;;5105222;28;20027;-55
2022/01/09 08:08:28;;;;;;;1.95;1.45;;;17.40;54.60;;;;;;5105479;28;20109;-57
2022/01/09 08:10:54;;;;;;;2.75;1.63;;;17.40;54.70;;;;;;5105512;28;20036;-57
2022/01/09 08:13:21;;;;;;;2.08;1.10;;;17.50;54.70;;;;;;5105595;28;20039;-57
2022/01/09 08:15:47;;;;;;;1.83;1.40;;;17.50;54.80;;;;;;5104173;28;20020;-56
2022/01/09 08:18:13;;;;;;;1.92;1.38;;;17.50;54.70;;;;;;5105426;28;20121;-56
2022/01/09 08:20:39;;;;;;;1.98;1.45;;;17.50;54.60;;;;;;5105370;28;20039;-57
2022/01/09 08:23:05;;;;;;;1.58;1.15;;;17.40;54.50;;;;;;5105349;28;20055;-56
2022/01/09 08:25:31;;;;;;;1.40;1.23;;;17.40;54.60;;;;;;5104904;28;20016;-57
2022/01/09 08:27:58;;;;;;;2.03;1.55;;;17.40;54.70;;;;;;5103835;28;20060;-56
2022/01/09 08:30:24;;;;;;;2.97;1.70;;;17.40;54.80;;;;;;5105337;28;20083;-57
2022/01/09 08:32:53;;;;;;;1.90;1.30;;;17.40;54.80;;;;;;5105054;28;20028;-56
2022/01/09 08:35:20;;;;;;;1.77;1.25;;;17.50;54.70;;;;;;5105086;28;20134;-56
2022/01/09 08:37:47;;;;;;;2.72;1.38;;;17.50;54.70;;;;;;5104932;28;20093;-56
2022/01/09 08:40:17;;;;;;;1.65;1.20;;;17.50;54.70;;;;;;5104828;28;20426;-57
2022/01/09 08:42:43;;;;;;;2.03;1.60;;;17.50;54.60;;;;;;5104869;28;20556;-57
2022/01/09 08:45:10;;;;;;;3.15;1.38;;;17.40;54.50;;;;;;5104823;28;20107;-57
2022/01/09 08:47:38;;;;;;;2.55;1.20;;;17.40;54.60;;;;;;5104731;28;20056;-56
2022/01/09 08:50:07;;;;;;;1.30;1.00;;;17.40;54.60;;;;;;5104981;28;20064;-57
2022/01/09 08:52:33;;;;;;;2.13;1.40;;;17.40;54.80;;;;;;5104469;28;20048;-57
2022/01/09 08:55:00;;;;;;;1.92;1.40;;;17.50;54.70;;;;;;5104524;28;20035;-56
2022/01/09 08:57:26;;;;;;;2.15;1.20;;;17.50;54.70;;;;;;5104361;28;20070;-56
2022/01/09 08:59:55;;;;;;;2.00;1.25;;;17.50;55.30;;;;;;5085943;28;20024;-57
2022/01/09 09:02:21;;;;;;;2.70;1.48;;;17.50;54.50;;;;;;5084401;28;20028;-56
2022/01/09 09:04:47;;;;;;;2.33;1.55;;;17.50;54.50;;;;;;5084255;28;20025;-55
2022/01/09 09:07:18;;;;;;;2.10;1.40;;;17.40;54.60;;;;;;5083881;28;20058;-57
2022/01/09 09:09:45;;;;;;;2.22;1.40;;;17.40;54.60;;;;;;5097170;28;20059;-57
2022/01/09 09:12:11;;;;;;;2.63;1.27;;;17.40;54.70;;;;;;5104436;28;20030;-57
2022/01/09 09:14:37;;;;;;;2.17;1.38;;;17.40;54.80;;;;;;5102746;28;20034;-57
2022/01/09 09:17:04;;;;;;;1.38;0.95;;;17.50;54.80;;;;;;5103895;28;20051;-57
2022/01/09 09:19:30;;;;;;;1.73;1.20;;;17.50;54.80;;;;;;5104370;28;20114;-57
2022/01/09 09:21:56;;;;;;;2.08;1.10;;;17.50;54.80;;;;;;5104351;28;20016;-55
2022/01/09 09:24:22;;;;;;;2.30;1.40;;;17.50;54.70;;;;;;5103745;28;20036;-57
2022/01/09 09:26:48;;;;;;;2.22;1.30;;;17.50;54.60;;;;;;5103853;28;20024;-57
2022/01/09 09:29:14;;;;;;;1.92;1.25;;;17.40;54.70;;;;;;5102452;28;20036;-57
2022/01/09 09:31:41;;;;;;;2.28;1.33;;;17.40;54.80;;;;;;5104141;28;20055;-57
2022/01/09 09:34:08;;;;;;;1.87;1.27;;;17.30;54.80;;;;;;5103706;28;20040;-56
2022/01/09 09:36:37;;;;;;;1.83;1.17;;;17.40;54.90;;;;;;5103840;28;20092;-57
2022/01/09 09:39:04;;;;;;;2.10;1.33;;;17.50;54.80;;;;;;5103241;28;20032;-57
2022/01/09 09:41:30;;;;;;;;;;;17.50;54.90;;;;;;5104184;28;20067;-57
2022/01/09 09:43:57;;;;;;;1.90;1.10;;;17.50;54.80;;;;;;5103779;28;19920;-53
2022/01/09 09:46:26;;;;;;;2.17;1.48;;;17.50;54.70;;;;;;5104007;28;20107;-57
2022/01/09 09:48:54;;;;;;;2.00;1.30;;;17.50;54.70;;;;;;5103390;28;20056;-54
2022/01/09 09:51:24;;;;;;;2.03;1.13;;;17.40;54.70;;;;;;5103688;28;20031;-57
2022/01/09 09:53:50;;;;;;;2.00;1.10;;;17.40;54.80;;;;;;5103284;28;20099;-57
2022/01/09 09:56:17;;;;;;;1.55;1.15;;;17.40;55.00;;;;;;5103525;28;20020;-57
2022/01/09 09:58:43;;;;;;;1.70;1.23;;;17.50;55.00;;;;;;5101251;28;20032;-57
2022/01/09 10:01:25;;;;;;;2.17;1.35;;;17.50;55.00;;;;;;5103023;28;20028;-56
2022/01/09 10:03:58;;;;;;;1.95;1.25;;;17.50;55.00;;;;;;5102959;28;20044;-57
2022/01/09 10:06:54;;;;;;;1.67;1.10;;;17.50;54.80;;;;;;5102947;28;20084;-57
2022/01/09 10:09:24;;;;;;;1.73;1.27;;;17.50;54.80;;;;;;5097876;28;20657;-57
2022/01/09 10:12:00;;;;;;;1.48;1.02;;;17.40;54.80;;;;;;5103286;28;20032;-57
2022/01/09 10:14:32;;;;;;;1.27;1.00;;;17.40;54.90;;;;;;5103160;28;20016;-56
2022/01/09 10:17:16;;;;;;;1.85;1.15;;;17.40;55.10;;;;;;5103229;28;20134;-57
2022/01/09 10:19:43;;;;;;;1.67;1.08;;;17.50;55.10;;;;;;5102348;28;20080;-57
2022/01/09 10:22:22;;;;;;;1.10;1.00;;;17.50;55.10;;;;;;5103130;28;20035;-58
2022/01/09 10:24:48;;;;;;;1.48;1.08;;;17.50;55.10;;;;;;5102888;28;20461;-56
2022/01/09 10:27:35;;;;;;;1.50;1.08;;;17.50;55.00;;;;;;5103015;28;20030;-57
2022/01/09 10:30:03;;;;;;;1.95;1.10;;;17.50;55.00;;;;;;5101754;28;20028;-56
2022/01/09 10:32:30;;;;;;;1.98;1.17;;;17.40;54.90;;;;;;5102979;28;20039;-55
2022/01/09 10:35:06;;;;;;;1.87;1.30;;;17.40;55.00;;;;;;5102835;28;20078;-55
2022/01/09 10:37:32;;;;;;;2.72;1.30;;;17.40;55.10;;;;;;5102877;28;20025;-56
2022/01/09 10:40:00;;;;;;;1.65;1.02;;;17.50;55.10;;;;;;5102403;28;20051;-57
2022/01/09 10:42:26;;;;;;;2.28;1.20;;;17.50;55.20;;;;;;5102635;28;20085;-57
2022/01/09 10:44:53;;;;;;;1.60;1.13;;;17.60;55.20;;;;;;5102769;28;20028;-56
2022/01/09 10:47:19;;;;;;;1.90;1.30;;;17.50;55.00;;;;;;5102958;28;20036;-56
2022/01/09 10:49:49;;;;;;;2.00;1.20;;;17.50;55.00;;;;;;5100968;28;20024;-54
2022/01/09 10:52:15;;;;;;;2.15;1.38;;;17.50;55.10;;;;;;5102772;28;20032;-57
2022/01/09 10:54:46;;;;;;;2.15;1.30;;;17.40;55.10;;;;;;5102456;28;20032;-56
2022/01/09 10:57:14;;;;;;;2.10;1.27;;;17.40;55.20;;;;;;5102473;28;20027;-57
2022/01/09 10:59:40;;;;;;;1.67;1.05;;;17.50;55.30;;;;;;5101513;28;20481;-58
2022/01/09 11:02:06;;;;;;;2.25;1.33;;;17.50;55.20;;;;;;5102363;28;20042;-57
2022/01/09 11:04:33;;;;;;;1.50;1.20;;;17.50;55.30;;;;;;5102423;28;20093;-55
2022/01/09 11:07:00;;;;;;;1.35;1.08;;;17.50;55.20;;;;;;5102128;28;20020;-56
2022/01/09 11:09:29;;;;;;;2.40;1.23;;;17.50;55.10;;;;;;5102073;28;20056;-55
2022/01/09 11:11:55;;;;;;;2.08;1.20;;;17.50;55.10;;;;;;5102291;28;20322;-53
2022/01/09 11:14:22;;;;;;;3.23;1.67;;;17.40;55.10;;;;;;5102513;28;20016;-54
2022/01/09 11:16:53;;;;;;;1.73;1.00;;;17.40;55.20;;;;;;5102552;28;20035;-55
2022/01/09 11:19:23;;;;;;;1.55;1.08;;;17.40;55.30;;;;;;5102126;28;20047;-57
2022/01/09 11:21:55;;;;;;;2.00;1.23;;;17.40;55.30;;;;;;5102507;28;20024;-55
2022/01/09 11:24:38;;;;;;;1.65;1.02;;;17.50;55.30;;;;;;5101956;28;20549;-56
2022/01/09 11:27:20;;;;;;;1.77;1.13;;;17.50;55.30;;;;;;5102357;28;20114;-56
2022/01/09 11:29:57;;;;;;;1.67;1.20;;;17.50;55.30;;;;;;5099702;28;20024;-57
2022/01/09 11:32:52;;;;;;;1.83;1.20;;;17.50;55.20;;;;;;5120786;28;20083;-55
2022/01/09 11:35:38;;;;;;;1.98;1.20;;;17.50;55.20;;;;;;5104778;28;20050;-56
2022/01/09 11:38:16;;;;;;;1.63;1.13;;;17.40;55.20;;;;;;5106060;28;20032;-57
2022/01/09 11:40:42;;;;;;;;;;;17.30;55.20;;;;;;5098930;28;20032;-57
2022/01/09 11:43:14;;;;;;;1.48;1.17;;;17.40;55.40;;;;;;5105792;28;19916;-53
2022/01/09 11:45:59;;;;;;;2.97;1.13;;;17.50;55.40;;;;;;5106165;28;20027;-55
2022/01/09 11:48:50;;;;;;;1.15;0.98;;;17.50;55.40;;;;;;5106044;28;20032;-56
2022/01/09 11:51:17;;;;;;;3.17;1.35;;;17.50;55.40;;;;;;5105836;28;20024;-55
2022/01/09 11:54:12;;;;;;;1.92;1.40;;;17.50;55.30;;;;;;5105938;28;20031;-57
2022/01/09 11:56:57;;;;;;;2.00;1.20;;;17.50;55.30;;;;;;5104296;28;20028;-55
2022/01/09 11:59:29;;;;;;;1.92;1.30;;;17.40;55.30;;;;;;5104395;28;20028;-56
2022/01/09 12:01:57;;;;;;;2.70;1.60;;;17.40;55.40;;;;;;5105366;28;20038;-57
2022/01/09 12:04:33;;;;;;;3.25;1.48;;;17.40;55.50;;;;;;5085096;28;20087;-57
2022/01/09 12:07:12;;;;;;;2.90;1.30;;;17.50;55.40;;;;;;5085468;28;20029;-57
2022/01/09 12:09:42;;;;;;;2.22;1.23;;;17.60;55.50;;;;;;5097314;28;20051;-56
2022/01/09 12:12:12;;;;;;;2.08;1.20;;;17.60;55.40;;;;;;5105717;28;20098;-56
2022/01/09 12:14:58;;;;;;;1.85;1.35;;;17.50;55.30;;;;;;5105318;28;20101;-58
2022/01/09 12:17:27;;;;;;;2.75;1.52;;;17.50;55.30;;;;;;5105606;28;20039;-56
2022/01/09 12:20:14;;;;;;;2.53;1.35;;;17.40;55.30;;;;;;5105153;28;20027;-57
2022/01/09 12:22:48;;;;;;;3.30;1.52;;;17.40;55.30;;;;;;5105342;28;20024;-56
2022/01/09 12:25:17;;;;;;;2.72;1.40;;;17.40;55.50;;;;;;5105270;28;20096;-57
2022/01/09 12:27:48;;;;;;;1.90;1.30;;;17.50;55.50;;;;;;5105105;28;20028;-57
2022/01/09 12:30:40;;;;;;;1.98;1.30;;;17.50;55.50;;;;;;5103784;28;20553;-57
2022/01/09 12:33:28;;;;;;;2.72;1.40;;;17.50;55.50;;;;;;5099481;28;20032;-56
2022/01/09 12:35:58;;;;;;;1.77;1.50;;;17.50;55.40;;;;;;5097725;28;20051;-57
2022/01/09 12:38:26;;;;;;;2.17;1.00;;;17.50;55.40;;;;;;5104847;28;20045;-57
2022/01/09 12:40:56;;;;;;;1.67;1.27;;;17.40;55.40;;;;;;5104644;28;20492;-57
2022/01/09 12:43:23;;;;;;;1.77;1.40;;;17.40;55.50;;;;;;5104592;28;20046;-57
2022/01/09 12:45:49;;;;;;;2.00;1.40;;;17.40;55.60;;;;;;5104829;28;20039;-55
2022/01/09 12:48:31;;;;;;;2.05;1.23;;;17.50;55.70;;;;;;5105129;28;20027;-57
2022/01/09 12:51:15;;;;;;;2.42;1.25;;;17.50;55.60;;;;;;5104804;28;20024;-55
2022/01/09 12:53:45;;;;;;;1.65;1.08;;;17.50;55.60;;;;;;5104773;28;20020;-56
2022/01/09 12:56:24;;;;;;;2.17;1.25;;;17.50;55.50;;;;;;5104717;28;20059;-57